Red Fish — WDF3926 — position and weather

sailwx.info

Track history (hours):
 
Tides and Currents Weather Stations Pressure Air Temp Water Temp Dewpoint Dewpoint Depression Visibility Wind Speed Wind Dir Waves Ship Positions

Red Fish

Owner: Higman Barge Lines, Inc 1980 Post Oak Blvd., Suite 1101 Houston, Texas 77056, Orange, TX. More information available from US FCC via Universal Licensing System and Coast Guard Vessel Documentation Center.

Last reported at 2014-Oct-21 14:04 UTC. Time now 2014-Oct-21 21:47 UTC.
Position N 29°57' W 090°23'.

Length 26 m; draft 2.9 m.

Type: Towing. MMSI: 367445690.

Date/timePositionNaut miles runAvg speedWind from/ knotsBaromVisibWave heightAir tempDewpointWater temp
2014-Oct-21 14:04N 29°57' W 090°23'0 0.0
2014-Oct-21 13:13N 29°57' W 090°23'0 0.0
2014-Oct-21 12:33N 29°57' W 090°23'0 0.0
2014-Oct-21 11:33N 29°57' W 090°23'0 0.0
2014-Oct-21 10:33N 29°57' W 090°23'0 0.0
2014-Oct-21 09:33N 29°57' W 090°23'0 0.0
2014-Oct-21 08:32N 29°57' W 090°23'0 0.0
2014-Oct-21 07:27N 29°57' W 090°23'0 0.0
2014-Oct-21 05:27N 29°57' W 090°23'0 0.0
2014-Oct-21 03:23N 29°57' W 090°23'0 0.0
2014-Oct-20 16:04N 29°57' W 090°23'0 0.0
2014-Oct-20 13:05N 29°57' W 090°23'0 0.0
2014-Oct-20 12:33N 29°57' W 090°23'1 0.6
2014-Oct-20 11:27N 29°58' W 090°24'7 7.3
2014-Oct-20 10:27N 30°03' W 090°29'  
2014-Oct-18 02:04N 29°57' W 090°23'19 1.0
2014-Oct-17 07:32N 29°46' W 090°05'2 1.5
2014-Oct-17 06:32N 29°46' W 090°06'8 3.9
2014-Oct-17 04:29N 29°40' W 090°12'39 3.5
2014-Oct-16 17:09N 29°35' W 090°57'3 5.6
2014-Oct-16 16:33N 29°37' W 090°60'5 5.4
2014-Oct-16 15:33N 29°38' W 091°06'4 3.9
2014-Oct-16 14:33N 29°41' W 091°09'3 3.4
2014-Oct-16 13:33N 29°41' W 091°13'5 4.8
2014-Oct-16 12:33N 29°39' W 091°18'5 4.5
2014-Oct-16 11:33N 29°39' W 091°23'3 3.4
2014-Oct-16 10:33N 29°40' W 091°27'4 3.6
2014-Oct-16 09:33N 29°42' W 091°30'3 3.0
2014-Oct-16 08:33N 29°43' W 091°33'3 2.7
2014-Oct-16 07:33N 29°45' W 091°36'4 4.3
2014-Oct-16 06:33N 29°46' W 091°41'4 4.0
2014-Oct-16 05:33N 29°46' W 091°45'159 3.9
2014-Oct-14 12:33N 29°23' W 094°46'3 3.1
2014-Oct-14 11:33N 29°22' W 094°49'4 3.8
2014-Oct-14 10:28N 29°22' W 094°54'1 0.8
2014-Oct-14 09:32N 29°22' W 094°55'0 0.0
2014-Oct-14 08:27N 29°22' W 094°55'0 0.1
2014-Oct-14 07:31N 29°22' W 094°55'0 0.1
2014-Oct-14 06:33N 29°22' W 094°55'0 0.0
2014-Oct-14 05:31N 29°22' W 094°55'0 0.0
2014-Oct-14 04:30N 29°22' W 094°55'0 0.0
2014-Oct-14 03:32N 29°22' W 094°55'0 0.0
2014-Oct-14 02:31N 29°22' W 094°55'0 0.0
2014-Oct-14 01:33N 29°22' W 094°55'0 0.0
2014-Oct-14 00:33N 29°22' W 094°55'0 0.0
2014-Oct-13 23:33N 29°22' W 094°55'0 0.0
2014-Oct-13 22:29N 29°22' W 094°55'0 0.0
2014-Oct-13 21:33N 29°22' W 094°55'0 0.0
2014-Oct-13 20:33N 29°22' W 094°55'0 0.0
2014-Oct-13 19:33N 29°22' W 094°55'0 0.0
2014-Oct-13 18:30N 29°22' W 094°55'0 0.0
2014-Oct-13 17:30N 29°22' W 094°55'0 0.0
2014-Oct-13 16:33N 29°22' W 094°55'4 1.9
2014-Oct-13 14:31N 29°22' W 094°51'  
Track history (hours):
 
Tides and Currents Weather Stations Pressure Air Temp Water Temp Dewpoint Dewpoint Depression Visibility Wind Speed Wind Dir Waves Ship Positions

Red Fish

Owner: Higman Barge Lines, Inc 1980 Post Oak Blvd., Suite 1101 Houston, Texas 77056, Orange, TX. More information available from US FCC via Universal Licensing System and Coast Guard Vessel Documentation Center.

Last reported at 2014-Oct-21 14:04 UTC. Time now 2014-Oct-21 21:47 UTC.
Position N 29°57' W 090°23'.

Length 26 m; draft 2.9 m.

Type: Towing. MMSI: 367445690.

Date/timePositionNaut miles runAvg speedWind from/ knotsBaromVisibWave heightAir tempDewpointWater temp
2014-Oct-21 14:04N 29°57' W 090°23'0 0.0
2014-Oct-21 13:13N 29°57' W 090°23'0 0.0
2014-Oct-21 12:33N 29°57' W 090°23'0 0.0
2014-Oct-21 11:33N 29°57' W 090°23'0 0.0
2014-Oct-21 10:33N 29°57' W 090°23'0 0.0
2014-Oct-21 09:33N 29°57' W 090°23'0 0.0
2014-Oct-21 08:32N 29°57' W 090°23'0 0.0
2014-Oct-21 07:27N 29°57' W 090°23'0 0.0
2014-Oct-21 05:27N 29°57' W 090°23'0 0.0
2014-Oct-21 03:23N 29°57' W 090°23'0 0.0
2014-Oct-20 16:04N 29°57' W 090°23'0 0.0
2014-Oct-20 13:05N 29°57' W 090°23'0 0.0
2014-Oct-20 12:33N 29°57' W 090°23'1 0.6
2014-Oct-20 11:27N 29°58' W 090°24'7 7.3
2014-Oct-20 10:27N 30°03' W 090°29'  
2014-Oct-18 02:04N 29°57' W 090°23'19 1.0
2014-Oct-17 07:32N 29°46' W 090°05'2 1.5
2014-Oct-17 06:32N 29°46' W 090°06'8 3.9
2014-Oct-17 04:29N 29°40' W 090°12'39 3.5
2014-Oct-16 17:09N 29°35' W 090°57'3 5.6
2014-Oct-16 16:33N 29°37' W 090°60'5 5.4
2014-Oct-16 15:33N 29°38' W 091°06'4 3.9
2014-Oct-16 14:33N 29°41' W 091°09'3 3.4
2014-Oct-16 13:33N 29°41' W 091°13'5 4.8
2014-Oct-16 12:33N 29°39' W 091°18'5 4.5
2014-Oct-16 11:33N 29°39' W 091°23'3 3.4
2014-Oct-16 10:33N 29°40' W 091°27'4 3.6
2014-Oct-16 09:33N 29°42' W 091°30'3 3.0
2014-Oct-16 08:33N 29°43' W 091°33'3 2.7
2014-Oct-16 07:33N 29°45' W 091°36'4 4.3
2014-Oct-16 06:33N 29°46' W 091°41'4 4.0
2014-Oct-16 05:33N 29°46' W 091°45'159 3.9
2014-Oct-14 12:33N 29°23' W 094°46'3 3.1
2014-Oct-14 11:33N 29°22' W 094°49'4 3.8
2014-Oct-14 10:28N 29°22' W 094°54'1 0.8
2014-Oct-14 09:32N 29°22' W 094°55'0 0.0
2014-Oct-14 08:27N 29°22' W 094°55'0 0.1
2014-Oct-14 07:31N 29°22' W 094°55'0 0.1
2014-Oct-14 06:33N 29°22' W 094°55'0 0.0
2014-Oct-14 05:31N 29°22' W 094°55'0 0.0
2014-Oct-14 04:30N 29°22' W 094°55'0 0.0
2014-Oct-14 03:32N 29°22' W 094°55'0 0.0
2014-Oct-14 02:31N 29°22' W 094°55'0 0.0
2014-Oct-14 01:33N 29°22' W 094°55'0 0.0
2014-Oct-14 00:33N 29°22' W 094°55'0 0.0
2014-Oct-13 23:33N 29°22' W 094°55'0 0.0
2014-Oct-13 22:29N 29°22' W 094°55'0 0.0
2014-Oct-13 21:33N 29°22' W 094°55'0 0.0
2014-Oct-13 20:33N 29°22' W 094°55'0 0.0
2014-Oct-13 19:33N 29°22' W 094°55'0 0.0
2014-Oct-13 18:30N 29°22' W 094°55'0 0.0
2014-Oct-13 17:30N 29°22' W 094°55'0 0.0
2014-Oct-13 16:33N 29°22' W 094°55'4 1.9
2014-Oct-13 14:31N 29°22' W 094°51'  

Dump ship's entire track history